createdAt,value
2018-02-24T00:00:51.896Z,11.07
2018-02-24T00:01:54.403Z,10.52
2018-02-24T00:02:56.905Z,9.65
2018-02-24T00:03:59.466Z,9.95
2018-02-24T00:05:02.739Z,10.23
2018-02-24T00:06:06.031Z,9.70
2018-02-24T00:07:09.293Z,9.68
2018-02-24T00:08:11.798Z,10.52
2018-02-24T00:09:14.295Z,10.43
2018-02-24T00:10:16.797Z,10.43
2018-02-24T00:11:19.314Z,9.95
2018-02-24T00:12:21.854Z,10.75
2018-02-24T00:13:24.356Z,10.15
2018-02-24T00:14:26.859Z,10.30
2018-02-24T00:15:30.134Z,10.23
2018-02-24T00:16:32.695Z,10.70
2018-02-24T00:17:35.194Z,9.70
2018-02-24T00:18:37.698Z,11.27
2018-02-24T00:19:40.198Z,10.70
2018-02-24T00:20:42.737Z,10.50
2018-02-24T00:21:45.242Z,10.40
2018-02-24T00:22:48.514Z,10.77
2018-02-24T00:23:51.780Z,11.15
2018-02-24T00:24:55.782Z,11.20
2018-02-24T00:25:58.282Z,10.73
2018-02-24T00:27:00.804Z,11.32
2018-02-24T00:28:03.297Z,10.90
2018-02-24T00:29:06.578Z,10.80
2018-02-24T00:30:09.843Z,11.65
2018-02-24T00:31:12.337Z,10.63
2018-02-24T00:32:15.630Z,10.63
2018-02-24T00:33:18.134Z,11.12
2018-02-24T00:34:20.629Z,11.00
2018-02-24T00:35:23.134Z,11.63
2018-02-24T00:36:25.641Z,11.05
2018-02-24T00:37:28.258Z,11.25
2018-02-24T00:38:31.651Z,10.80
2018-02-24T00:39:34.153Z,11.12
2018-02-24T00:40:36.652Z,11.73
2018-02-24T00:41:39.148Z,11.88
2018-02-24T00:42:41.671Z,11.65
2018-02-24T00:43:44.181Z,11.57
2018-02-24T00:44:46.682Z,11.65
2018-02-24T00:45:49.178Z,11.55
2018-02-24T00:46:51.671Z,11.30
2018-02-24T00:47:54.185Z,11.10
2018-02-24T00:48:56.686Z,11.82
2018-02-24T00:49:59.958Z,10.55
2018-02-24T00:51:03.218Z,11.52
2018-02-24T00:52:05.715Z,10.98
2018-02-24T00:53:09.007Z,10.52
2018-02-24T00:54:11.512Z,10.90
2018-02-24T00:55:14.026Z,11.50
2018-02-24T00:56:17.298Z,11.63
2018-02-24T00:57:19.803Z,11.60
2018-02-24T00:58:22.323Z,11.43
2018-02-24T00:59:24.830Z,12.27
2018-02-24T01:00:27.341Z,12.55
2018-02-24T01:01:29.850Z,10.90
2018-02-24T01:02:32.343Z,11.50
2018-02-24T01:03:34.907Z,12.63
2018-02-24T01:04:37.406Z,11.20
2018-02-24T01:05:39.919Z,11.55
2018-02-24T01:06:42.419Z,11.18
2018-02-24T01:07:44.922Z,12.32
2018-02-24T01:08:48.214Z,11.23
2018-02-24T01:09:51.482Z,12.55
2018-02-24T01:10:53.994Z,11.40
2018-02-24T01:11:56.720Z,11.60
2018-02-24T01:12:59.262Z,11.65
2018-02-24T01:14:01.878Z,13.07
2018-02-24T01:15:04.370Z,12.15
2018-02-24T01:16:06.865Z,12.15
2018-02-24T01:17:09.358Z,12.75
2018-02-24T01:18:12.626Z,12.68
2018-02-24T01:19:15.242Z,12.37
2018-02-24T01:20:17.739Z,11.90
2018-02-24T01:21:20.246Z,12.55
2018-02-24T01:22:23.738Z,11.50
2018-02-24T01:23:26.240Z,12.30
2018-02-24T01:24:28.761Z,12.80
2018-02-24T01:25:32.058Z,12.75
2018-02-24T01:26:34.561Z,11.95
2018-02-24T01:27:37.074Z,12.52
2018-02-24T01:28:39.607Z,12.37
2018-02-24T01:29:42.119Z,12.75
2018-02-24T01:30:44.616Z,12.90
2018-02-24T01:31:47.120Z,12.73
2018-02-24T01:32:49.619Z,12.37
2018-02-24T01:33:52.134Z,12.98
2018-02-24T01:34:54.659Z,11.80
2018-02-24T01:35:57.150Z,11.80
2018-02-24T01:36:59.662Z,12.82
2018-02-24T01:38:02.922Z,14.38
2018-02-24T01:39:05.438Z,13.32
2018-02-24T01:40:07.970Z,14.85
2018-02-24T01:41:11.234Z,15.00
2018-02-24T01:42:13.836Z,13.82
2018-02-24T01:43:16.340Z,14.70
2018-02-24T01:44:18.843Z,14.10
2018-02-24T01:45:21.357Z,13.18
2018-02-24T01:46:23.851Z,13.40
2018-02-24T01:47:26.342Z,13.80
2018-02-24T01:48:28.834Z,14.15
2018-02-24T01:49:31.326Z,14.48
2018-02-24T01:50:42.749Z,12.52
2018-02-24T01:51:46.016Z,12.43
2018-02-24T01:52:48.510Z,14.10
2018-02-24T01:53:51.765Z,12.82
2018-02-24T01:54:54.270Z,13.13
2018-02-24T01:55:56.789Z,12.20
2018-02-24T01:56:59.287Z,12.13
2018-02-24T01:58:02.566Z,13.57
2018-02-24T01:59:05.834Z,12.85
2018-02-24T02:00:08.346Z,13.25
2018-02-24T02:01:10.866Z,12.32
2018-02-24T02:02:13.378Z,12.32
2018-02-24T02:03:15.875Z,11.77
2018-02-24T02:04:18.370Z,11.38
2018-02-24T02:05:21.637Z,12.05
2018-02-24T02:06:24.155Z,11.68
2018-02-24T02:07:26.654Z,11.20
2018-02-24T02:08:29.162Z,11.93
2018-02-24T02:09:32.446Z,12.43
2018-02-24T02:10:35.710Z,11.50
2018-02-24T02:11:38.297Z,12.18
2018-02-24T02:12:40.806Z,13.00
2018-02-24T02:13:43.298Z,11.88
2018-02-24T02:14:45.794Z,12.25
2018-02-24T02:15:48.297Z,12.07
2018-02-24T02:16:50.814Z,11.52
2018-02-24T02:17:54.083Z,12.15
2018-02-24T02:18:56.578Z,13.55
2018-02-24T02:19:59.088Z,12.25
2018-02-24T02:21:01.593Z,12.63
2018-02-24T02:22:04.886Z,12.57
2018-02-24T02:23:07.385Z,13.15
2018-02-24T02:24:09.886Z,11.98
2018-02-24T02:25:12.406Z,12.52
2018-02-24T02:26:14.906Z,12.55
2018-02-24T02:27:17.437Z,12.40
2018-02-24T02:28:19.930Z,12.65
2018-02-24T02:29:22.430Z,12.32
2018-02-24T02:30:25.690Z,11.93
2018-02-24T02:31:28.191Z,12.32
2018-02-24T02:32:30.750Z,11.63
2018-02-24T02:33:34.015Z,12.25
2018-02-24T02:34:36.506Z,11.93
2018-02-24T02:35:39.005Z,12.05
2018-02-24T02:36:41.511Z,12.27
2018-02-24T02:37:44.038Z,12.05
2018-02-24T02:38:47.157Z,12.27
2018-02-24T02:39:52.013Z,12.02
2018-02-24T02:40:54.874Z,12.25
2018-02-24T02:41:57.958Z,12.55
2018-02-24T02:43:00.541Z,12.27
2018-02-24T02:44:03.049Z,12.13
2018-02-24T02:45:05.828Z,12.27
2018-02-24T02:46:09.973Z,11.85
2018-02-24T02:47:13.091Z,11.80
2018-02-24T02:48:15.625Z,12.50
2018-02-24T02:49:18.127Z,12.43
2018-02-24T02:50:20.626Z,11.98
2018-02-24T02:51:23.894Z,11.90
2018-02-24T02:52:26.482Z,12.85
2018-02-24T02:53:29.782Z,11.88
2018-02-24T02:54:32.282Z,12.00
2018-02-24T02:55:34.792Z,11.32
2018-02-24T02:56:38.062Z,11.82
2018-02-24T02:57:41.335Z,12.13
2018-02-24T02:58:43.878Z,11.27
2018-02-24T02:59:46.375Z,11.77
2018-02-24T03:00:49.688Z,12.00
2018-02-24T03:01:52.185Z,11.30
2018-02-24T03:02:54.686Z,12.27
2018-02-24T03:03:57.207Z,11.65
2018-02-24T03:04:59.706Z,13.05
2018-02-24T03:06:02.227Z,11.70
2018-02-24T03:07:04.730Z,12.40
2018-02-24T03:08:07.229Z,11.07
2018-02-24T03:09:10.516Z,11.63
2018-02-24T03:10:13.782Z,11.40
2018-02-24T03:11:17.051Z,11.15
2018-02-24T03:12:19.554Z,12.20
2018-02-24T03:13:22.054Z,11.15
2018-02-24T03:14:24.589Z,12.15
2018-02-24T03:15:27.098Z,11.45
2018-02-24T03:16:29.616Z,12.10
2018-02-24T03:17:32.140Z,11.65
2018-02-24T03:18:34.650Z,11.32
2018-02-24T03:19:37.169Z,11.98
2018-02-24T03:20:39.671Z,11.68
2018-02-24T03:21:42.927Z,11.05
2018-02-24T03:22:45.426Z,11.32
2018-02-24T03:23:47.934Z,11.48
2018-02-24T03:24:50.452Z,11.60
2018-02-24T03:25:52.950Z,11.98
2018-02-24T03:26:55.454Z,11.77
2018-02-24T03:27:58.047Z,11.05
2018-02-24T03:29:01.314Z,11.52
2018-02-24T03:30:04.619Z,10.73
2018-02-24T03:31:07.134Z,12.02
2018-02-24T03:32:09.643Z,11.73
2018-02-24T03:33:12.907Z,10.80
2018-02-24T03:34:16.167Z,11.77
2018-02-24T03:35:18.685Z,12.68
2018-02-24T03:36:21.182Z,12.00
2018-02-24T03:37:23.686Z,11.80
2018-02-24T03:38:26.191Z,11.90
2018-02-24T03:39:28.694Z,11.93
2018-02-24T03:40:31.215Z,12.02
2018-02-24T03:41:33.738Z,12.07
2018-02-24T03:42:36.281Z,11.60
2018-02-24T03:43:38.769Z,11.35
2018-02-24T03:44:41.278Z,12.05
2018-02-24T03:45:58.693Z,12.07
2018-02-24T03:47:01.190Z,11.70
2018-02-24T03:48:03.684Z,12.63
2018-02-24T03:49:06.178Z,12.15
2018-02-24T03:50:08.673Z,12.20
2018-02-24T03:51:11.202Z,12.05
2018-02-24T03:52:14.465Z,11.65
2018-02-24T03:53:17.727Z,12.23
2018-02-24T03:54:20.255Z,11.27
2018-02-24T03:55:22.752Z,11.77
2018-02-24T03:56:25.276Z,12.52
2018-02-24T03:57:27.799Z,11.25
2018-02-24T03:58:30.301Z,11.07
2018-02-24T03:59:32.812Z,11.85
2018-02-24T04:00:35.308Z,11.52
2018-02-24T04:01:37.834Z,12.18
2018-02-24T04:02:40.333Z,10.80
2018-02-24T04:03:42.846Z,12.32
2018-02-24T04:04:45.353Z,10.68
2018-02-24T04:05:47.854Z,10.80
2018-02-24T04:06:51.135Z,11.75
2018-02-24T04:07:54.407Z,11.57
2018-02-24T04:08:57.673Z,10.75
2018-02-24T04:10:00.197Z,10.80
2018-02-24T04:11:02.709Z,11.63
2018-02-24T04:12:05.264Z,11.65
2018-02-24T04:13:07.790Z,11.12
2018-02-24T04:14:10.304Z,11.75
2018-02-24T04:15:12.827Z,10.82
2018-02-24T04:16:15.360Z,11.57
2018-02-24T04:17:18.654Z,11.55
2018-02-24T04:18:21.150Z,12.68
2018-02-24T04:19:23.658Z,11.60
2018-02-24T04:20:26.182Z,12.13
2018-02-24T04:21:28.682Z,10.98
2018-02-24T04:22:31.221Z,11.18
2018-02-24T04:23:33.734Z,11.55
2018-02-24T04:24:37.007Z,11.63
2018-02-24T04:25:39.506Z,11.68
2018-02-24T04:26:42.008Z,11.52
2018-02-24T04:27:44.539Z,11.43
2018-02-24T04:28:47.039Z,10.95
2018-02-24T04:29:49.550Z,11.85
2018-02-24T04:30:52.069Z,11.38
2018-02-24T04:31:54.582Z,11.65
2018-02-24T04:32:57.131Z,12.30
2018-02-24T04:34:00.394Z,11.32
2018-02-24T04:35:03.463Z,11.48
2018-02-24T04:36:05.958Z,10.65
2018-02-24T04:37:09.250Z,12.00
2018-02-24T04:38:12.542Z,10.88
2018-02-24T04:39:15.039Z,11.27
2018-02-24T04:40:17.530Z,11.05
2018-02-24T04:41:20.057Z,12.23
2018-02-24T04:42:22.567Z,11.65
2018-02-24T04:43:25.166Z,10.95
2018-02-24T04:44:28.430Z,11.30
2018-02-24T04:45:30.930Z,10.80
2018-02-24T04:46:33.437Z,11.43
2018-02-24T04:47:35.938Z,10.43
2018-02-24T04:48:39.345Z,10.95
2018-02-24T04:49:41.856Z,10.93
2018-02-24T04:50:44.362Z,10.82
2018-02-24T04:51:47.628Z,11.88
2018-02-24T04:52:50.891Z,11.32
2018-02-24T04:53:53.408Z,11.40
2018-02-24T04:54:55.902Z,11.40
2018-02-24T04:55:58.402Z,11.07
2018-02-24T04:57:00.894Z,10.77
2018-02-24T04:58:03.394Z,10.90
2018-02-24T04:59:05.927Z,10.70
2018-02-24T05:00:08.428Z,11.38
2018-02-24T05:01:10.930Z,10.70
2018-02-24T05:02:13.514Z,10.30
2018-02-24T05:03:16.781Z,11.30
2018-02-24T05:04:20.066Z,10.98
2018-02-24T05:05:23.327Z,10.73
2018-02-24T05:06:25.817Z,10.30
2018-02-24T05:07:28.399Z,11.68
2018-02-24T05:08:30.960Z,12.18
2018-02-24T05:09:33.492Z,10.75
2018-02-24T05:10:35.994Z,10.90
2018-02-24T05:11:39.258Z,10.15
2018-02-24T05:12:41.774Z,10.13
2018-02-24T05:13:44.278Z,10.63
2018-02-24T05:14:46.790Z,9.60
2018-02-24T05:15:49.302Z,10.68
2018-02-24T05:16:51.802Z,11.00
2018-02-24T05:17:55.068Z,11.32
2018-02-24T05:18:57.570Z,10.55
2018-02-24T05:20:00.090Z,10.60
2018-02-24T05:21:02.595Z,11.40
2018-02-24T05:22:05.100Z,11.07
2018-02-24T05:23:07.607Z,11.15
2018-02-24T05:24:10.884Z,11.15
2018-02-24T05:25:14.330Z,11.12
2018-02-24T05:26:16.831Z,11.05
2018-02-24T05:27:20.110Z,11.30
2018-02-24T05:28:22.622Z,11.73
2018-02-24T05:29:25.146Z,11.45
2018-02-24T05:30:28.442Z,11.20
2018-02-24T05:31:31.713Z,10.93
2018-02-24T05:32:34.978Z,11.88
2018-02-24T05:33:37.500Z,10.15
2018-02-24T05:34:40.014Z,11.30
2018-02-24T05:35:42.539Z,10.48
2018-02-24T05:36:45.035Z,11.50
2018-02-24T05:37:47.571Z,11.63
2018-02-24T05:38:50.110Z,10.55
2018-02-24T05:39:54.395Z,10.73
2018-02-24T05:40:56.930Z,10.88
2018-02-24T05:41:59.445Z,11.82
2018-02-24T05:43:01.944Z,10.52
2018-02-24T05:44:04.454Z,11.25
2018-02-24T05:45:07.761Z,10.25
2018-02-24T05:46:11.066Z,10.18
2018-02-24T05:47:13.561Z,10.75
2018-02-24T05:48:16.063Z,10.68
2018-02-24T05:49:19.339Z,11.48
2018-02-24T05:50:22.601Z,10.77
2018-02-24T05:51:25.128Z,11.20
2018-02-24T05:52:27.663Z,11.15
2018-02-24T05:53:30.199Z,10.10
2018-02-24T05:54:32.705Z,10.40
2018-02-24T05:55:35.204Z,10.80
2018-02-24T05:56:37.747Z,11.15
2018-02-24T05:57:40.246Z,11.32
2018-02-24T05:58:42.744Z,10.77
2018-02-24T05:59:45.254Z,10.75
2018-02-24T06:00:47.780Z,10.05
2018-02-24T06:01:51.062Z,11.52
2018-02-24T06:02:54.345Z,10.20
2018-02-24T06:03:57.625Z,10.15
2018-02-24T06:05:00.911Z,10.25
2018-02-24T06:06:04.195Z,10.13
2018-02-24T06:07:07.493Z,10.30
2018-02-24T06:08:10.766Z,10.25
2018-02-24T06:09:14.043Z,10.90
2018-02-24T06:10:16.560Z,10.00
2018-02-24T06:11:19.067Z,9.77
2018-02-24T06:12:21.766Z,9.70
2018-02-24T06:13:24.286Z,10.02
2018-02-24T06:14:26.790Z,9.60
2018-02-24T06:15:30.066Z,10.25
2018-02-24T06:16:33.329Z,9.65
2018-02-24T06:17:35.859Z,9.70
2018-02-24T06:18:38.371Z,9.38
2018-02-24T06:19:40.864Z,9.55
2018-02-24T06:20:43.369Z,10.07
2018-02-24T06:21:45.862Z,9.00
2018-02-24T06:22:49.913Z,9.52
2018-02-24T06:23:52.410Z,10.13
2018-02-24T06:24:54.923Z,9.32
2018-02-24T06:25:57.425Z,10.43
2018-02-24T06:26:59.918Z,10.70
2018-02-24T06:28:02.450Z,10.10
2018-02-24T06:29:04.974Z,9.70
2018-02-24T06:30:08.248Z,10.02
2018-02-24T06:31:11.511Z,11.18
2018-02-24T06:32:14.006Z,10.02
2018-02-24T06:33:17.290Z,10.75
2018-02-24T06:34:20.550Z,10.23
2018-02-24T06:35:23.145Z,11.15
2018-02-24T06:36:25.765Z,10.18
2018-02-24T06:37:28.283Z,10.85
2018-02-24T06:38:30.860Z,10.57
2018-02-24T06:39:33.384Z,11.02
2018-02-24T06:40:35.897Z,10.63
2018-02-24T06:41:38.411Z,10.48
2018-02-24T06:42:40.914Z,10.88
2018-02-24T06:43:43.434Z,11.02
2018-02-24T06:44:45.942Z,9.18
2018-02-24T06:45:48.451Z,9.90
2018-02-24T06:46:50.990Z,10.60
2018-02-24T06:47:53.511Z,10.55
2018-02-24T06:48:56.816Z,10.40
2018-02-24T06:49:59.326Z,10.15
2018-02-24T06:51:01.852Z,11.73
2018-02-24T06:52:04.357Z,10.85
2018-02-24T06:53:06.853Z,10.82
2018-02-24T06:54:09.430Z,10.23
2018-02-24T06:55:12.698Z,10.07
2018-02-24T06:56:15.203Z,10.05
2018-02-24T06:57:17.749Z,10.73
2018-02-24T06:58:21.030Z,11.07
2018-02-24T06:59:24.328Z,10.55
2018-02-24T07:00:26.834Z,10.25
2018-02-24T07:01:29.351Z,10.38
2018-02-24T07:02:31.862Z,10.57
2018-02-24T07:03:34.360Z,9.60
2018-02-24T07:04:36.889Z,10.52
2018-02-24T07:05:39.391Z,10.48
2018-02-24T07:06:42.687Z,10.05
2018-02-24T07:07:45.953Z,10.75
2018-02-24T07:08:48.462Z,11.52
2018-02-24T07:09:51.004Z,11.80
2018-02-24T07:10:54.259Z,9.68
2018-02-24T07:11:56.759Z,10.68
2018-02-24T07:13:00.031Z,11.93
2018-02-24T07:14:03.304Z,10.77
2018-02-24T07:15:06.634Z,10.52
2018-02-24T07:16:09.138Z,10.32
2018-02-24T07:17:11.643Z,9.50
2018-02-24T07:18:14.930Z,10.18
2018-02-24T07:19:17.450Z,11.43
2018-02-24T07:20:19.982Z,11.15
2018-02-24T07:21:22.488Z,11.52
2018-02-24T07:22:25.000Z,10.80
2018-02-24T07:23:27.505Z,10.73
2018-02-24T07:24:30.006Z,10.25
2018-02-24T07:25:33.442Z,11.02
2018-02-24T07:26:35.937Z,11.10
2018-02-24T07:27:38.444Z,10.23
2018-02-24T07:28:40.949Z,10.82
2018-02-24T07:29:43.463Z,11.43
2018-02-24T07:30:46.751Z,10.35
2018-02-24T07:31:49.266Z,11.00
2018-02-24T07:32:51.774Z,10.65
2018-02-24T07:33:55.049Z,10.63
2018-02-24T07:34:58.348Z,11.85
2018-02-24T07:36:01.631Z,11.18
2018-02-24T07:37:04.144Z,11.52
2018-02-24T07:38:06.642Z,10.93
2018-02-24T07:39:09.151Z,10.93
2018-02-24T07:40:11.708Z,10.35
2018-02-24T07:41:14.225Z,11.85
2018-02-24T07:42:16.758Z,10.23
2018-02-24T07:43:19.258Z,11.00
2018-02-24T07:44:21.750Z,9.45
2018-02-24T07:45:25.023Z,9.80
2018-02-24T07:46:28.314Z,9.77
2018-02-24T07:47:31.578Z,9.82
2018-02-24T07:48:34.103Z,9.40
2018-02-24T07:49:36.608Z,8.63
2018-02-24T07:50:39.136Z,8.38
2018-02-24T07:51:41.681Z,9.05
2018-02-24T07:52:44.187Z,8.88
2018-02-24T07:53:46.679Z,9.55
2018-02-24T07:54:49.960Z,9.45
2018-02-24T07:55:53.242Z,7.70
2018-02-24T07:56:56.548Z,8.60
2018-02-24T07:57:59.066Z,8.38
2018-02-24T07:59:01.561Z,8.30
2018-02-24T08:00:04.880Z,8.45
2018-02-24T08:01:07.378Z,8.73
2018-02-24T08:02:09.904Z,8.57
2018-02-24T08:03:12.410Z,7.90
2018-02-24T08:04:14.907Z,8.13
2018-02-24T08:05:18.187Z,8.23
2018-02-24T08:06:20.683Z,8.00
2018-02-24T08:07:23.202Z,7.43
2018-02-24T08:08:25.695Z,7.97
2018-02-24T08:09:28.962Z,8.60
2018-02-24T08:10:31.471Z,8.65
2018-02-24T08:11:33.983Z,9.18
2018-02-24T08:12:36.586Z,8.30
2018-02-24T08:13:39.090Z,10.48
2018-02-24T08:14:41.601Z,10.88
2018-02-24T08:15:44.878Z,8.48
2018-02-24T08:16:48.138Z,8.93
2018-02-24T08:17:50.765Z,8.38
2018-02-24T08:18:53.266Z,8.80
2018-02-24T08:19:55.771Z,8.52
2018-02-24T08:20:59.043Z,9.20
2018-02-24T08:22:02.322Z,8.65
2018-02-24T08:23:05.606Z,8.70
2018-02-24T08:24:08.124Z,9.60
2018-02-24T08:25:10.618Z,8.85
2018-02-24T08:26:13.127Z,9.60
2018-02-24T08:27:15.627Z,8.77
2018-02-24T08:28:18.155Z,9.57
2018-02-24T08:29:20.723Z,8.98
2018-02-24T08:30:23.230Z,8.70
2018-02-24T08:31:25.783Z,8.50
2018-02-24T08:32:29.378Z,8.23
2018-02-24T08:33:31.919Z,8.20
2018-02-24T08:34:34.448Z,7.25
2018-02-24T08:35:37.726Z,8.38
2018-02-24T08:36:40.235Z,10.18
2018-02-24T08:37:42.906Z,8.85
2018-02-24T08:38:45.466Z,7.72
2018-02-24T08:39:47.977Z,8.10
2018-02-24T08:40:50.502Z,7.55
2018-02-24T08:41:53.010Z,7.45
2018-02-24T08:42:55.555Z,7.87
2018-02-24T08:43:58.086Z,7.55
2018-02-24T08:45:01.366Z,7.43
2018-02-24T08:46:04.642Z,7.43
2018-02-24T08:47:07.936Z,7.00
2018-02-24T08:48:11.203Z,7.22
2018-02-24T08:49:14.494Z,8.00
2018-02-24T08:50:17.788Z,7.93
2018-02-24T08:51:20.365Z,7.35
2018-02-24T08:52:22.866Z,7.22
2018-02-24T08:53:27.161Z,7.43
2018-02-24T08:54:29.682Z,8.05
2018-02-24T08:55:32.965Z,6.80
2018-02-24T08:56:36.246Z,7.12
2018-02-24T08:57:39.549Z,7.57
2018-02-24T08:58:42.060Z,7.30
2018-02-24T08:59:44.584Z,7.35
2018-02-24T09:00:47.099Z,8.13
2018-02-24T09:01:49.616Z,7.93
2018-02-24T09:02:52.128Z,8.07
2018-02-24T09:03:54.629Z,7.70
2018-02-24T09:04:57.929Z,7.57
2018-02-24T09:06:00.483Z,7.43
2018-02-24T09:07:03.031Z,7.93
2018-02-24T09:08:05.543Z,8.73
2018-02-24T09:09:08.038Z,6.80
2018-02-24T09:10:10.564Z,8.45
2018-02-24T09:11:13.069Z,7.97
2018-02-24T09:12:16.748Z,7.97
2018-02-24T09:13:19.256Z,6.43
2018-02-24T09:14:21.782Z,7.70
2018-02-24T09:15:24.336Z,7.32
2018-02-24T09:16:26.912Z,7.45
2018-02-24T09:17:29.432Z,7.32
2018-02-24T09:18:31.938Z,7.32
2018-02-24T09:19:34.791Z,7.57
2018-02-24T09:20:37.406Z,7.40
2018-02-24T09:21:39.925Z,7.93
2018-02-24T09:22:42.426Z,7.50
2018-02-24T09:23:45.950Z,7.60
2018-02-24T09:24:49.234Z,7.35
2018-02-24T09:25:52.569Z,7.55
2018-02-24T09:26:55.085Z,6.75
2018-02-24T09:27:58.350Z,7.40
2018-02-24T09:29:00.888Z,6.97
2018-02-24T09:30:03.408Z,7.30
2018-02-24T09:31:05.951Z,7.47
2018-02-24T09:32:08.485Z,6.55
2018-02-24T09:33:10.987Z,7.07
2018-02-24T09:34:14.278Z,6.70
2018-02-24T09:35:17.596Z,7.60
2018-02-24T09:36:20.122Z,7.20
2018-02-24T09:37:23.409Z,6.85
2018-02-24T09:38:26.687Z,6.72
2018-02-24T09:39:29.231Z,7.12
2018-02-24T09:40:31.753Z,7.60
2018-02-24T09:41:34.290Z,8.20
2018-02-24T09:42:37.548Z,8.10
2018-02-24T09:43:40.055Z,6.65
2018-02-24T09:44:42.554Z,7.60
2018-02-24T09:45:45.142Z,6.87
2018-02-24T09:46:47.693Z,7.43
2018-02-24T09:47:50.197Z,6.75
2018-02-24T09:48:53.466Z,6.65
2018-02-24T09:49:55.965Z,6.47
2018-02-24T09:50:58.464Z,7.20
2018-02-24T09:52:01.054Z,7.30
2018-02-24T09:53:03.571Z,6.53
2018-02-24T09:54:06.836Z,6.10
2018-02-24T09:55:10.103Z,7.15
2018-02-24T09:56:12.624Z,7.00
2018-02-24T09:57:15.189Z,7.55
2018-02-24T09:58:17.690Z,6.93
2018-02-24T09:59:20.201Z,6.80
2018-02-24T10:00:22.730Z,6.78
2018-02-24T10:01:26.971Z,6.87
2018-02-24T10:02:29.640Z,5.95
2018-02-24T10:03:32.186Z,6.70
2018-02-24T10:04:35.464Z,7.22
2018-02-24T10:05:38.754Z,6.72
2018-02-24T10:06:42.043Z,6.57
2018-02-24T10:07:45.372Z,6.60
2018-02-24T10:08:47.907Z,7.10
2018-02-24T10:09:50.791Z,6.43
2018-02-24T10:10:53.321Z,6.80
2018-02-24T10:11:57.418Z,6.32
2018-02-24T10:13:00.146Z,6.47
2018-02-24T10:14:02.646Z,5.95
2018-02-24T10:15:05.209Z,6.97
2018-02-24T10:16:09.503Z,6.72
2018-02-24T10:17:15.742Z,6.72
2018-02-24T10:18:18.487Z,6.53
2018-02-24T10:19:20.999Z,5.90
2018-02-24T10:20:23.508Z,32.42
2018-02-24T10:21:26.033Z,19.35
2018-02-24T10:22:28.568Z,8.75
2018-02-24T10:23:31.107Z,8.63
2018-02-24T10:24:33.650Z,6.40
2018-02-24T10:25:36.985Z,6.43
2018-02-24T10:26:39.502Z,5.65
2018-02-24T10:27:42.789Z,6.35
2018-02-24T10:28:46.205Z,5.70
2018-02-24T10:29:48.788Z,6.25
2018-02-24T10:30:51.290Z,6.57
2018-02-24T10:31:53.819Z,7.20
2018-02-24T10:32:56.320Z,6.65
2018-02-24T10:33:58.911Z,6.68
2018-02-24T10:35:02.428Z,6.97
2018-02-24T10:36:04.928Z,7.15
2018-02-24T10:37:07.460Z,7.47
2018-02-24T10:38:09.980Z,9.63
2018-02-24T10:39:13.346Z,12.02
2018-02-24T10:40:15.861Z,9.02
2018-02-24T10:41:18.374Z,17.87
2018-02-24T10:42:20.870Z,8.48
2018-02-24T10:43:24.137Z,10.57
2018-02-24T10:44:26.671Z,7.28
2018-02-24T10:45:29.321Z,6.15
2018-02-24T10:46:31.856Z,5.75
2018-02-24T10:47:35.278Z,6.05
2018-02-24T10:48:37.780Z,5.70
2018-02-24T10:49:41.094Z,6.12
2018-02-24T10:50:44.685Z,6.40
2018-02-24T10:51:48.478Z,5.45
2018-02-24T10:52:51.763Z,6.35
2018-02-24T10:53:55.064Z,5.95
2018-02-24T10:54:57.594Z,5.47
2018-02-24T10:56:00.118Z,6.20
2018-02-24T10:57:02.636Z,5.68
2018-02-24T10:58:05.916Z,6.40
2018-02-24T10:59:09.204Z,6.50
2018-02-24T11:00:12.492Z,5.97
2018-02-24T11:01:15.768Z,6.53
2018-02-24T11:02:19.043Z,6.53
2018-02-24T11:03:22.326Z,5.53
2018-02-24T11:04:24.830Z,5.25
2018-02-24T11:05:27.387Z,6.82
2018-02-24T11:06:29.931Z,6.07
2018-02-24T11:07:33.199Z,4.75
2018-02-24T11:08:35.705Z,5.20
2018-02-24T11:09:38.206Z,6.60
2018-02-24T11:10:40.807Z,6.80
2018-02-24T11:11:43.359Z,5.87
2018-02-24T11:12:45.863Z,5.20
2018-02-24T11:13:48.371Z,5.78
2018-02-24T11:14:50.939Z,5.32
2018-02-24T11:15:53.617Z,5.90
2018-02-24T11:16:56.159Z,5.25
2018-02-24T11:17:58.672Z,7.15
2018-02-24T11:19:01.182Z,5.18
2018-02-24T11:20:03.682Z,4.47
2018-02-24T11:21:06.218Z,6.10
2018-02-24T11:22:08.715Z,5.68
2018-02-24T11:23:11.214Z,5.87
2018-02-24T11:24:15.492Z,5.62
2018-02-24T11:25:18.008Z,5.05
2018-02-24T11:26:20.530Z,6.15
2018-02-24T11:27:23.041Z,6.78
2018-02-24T11:28:25.539Z,4.80
2018-02-24T11:29:28.046Z,5.25
2018-02-24T11:30:38.629Z,5.20
2018-02-24T11:31:46.646Z,5.70
2018-02-24T11:32:49.526Z,5.30
2018-02-24T11:33:52.027Z,5.32
2018-02-24T11:34:55.377Z,5.47
2018-02-24T11:35:58.090Z,5.05
2018-02-24T11:37:01.404Z,5.28
2018-02-24T11:38:05.340Z,6.40
2018-02-24T11:39:07.962Z,6.00
2018-02-24T11:40:10.476Z,5.30
2018-02-24T11:41:13.050Z,6.07
2018-02-24T11:42:15.570Z,5.15
2018-02-24T11:43:18.071Z,5.43
2018-02-24T11:44:20.688Z,5.30
2018-02-24T11:45:23.196Z,4.90
2018-02-24T11:46:26.503Z,5.57
2018-02-24T11:47:29.047Z,5.28
2018-02-24T11:48:31.546Z,4.97
2018-02-24T11:49:34.826Z,5.15
2018-02-24T11:50:38.116Z,5.18
2018-02-24T11:51:41.389Z,6.70
2018-02-24T11:52:44.686Z,5.30
2018-02-24T11:53:47.966Z,6.00
2018-02-24T11:54:51.260Z,6.75
2018-02-24T11:55:53.766Z,8.02
2018-02-24T11:56:56.272Z,7.80
2018-02-24T11:57:59.558Z,7.18
2018-02-24T11:59:02.826Z,5.75
2018-02-24T12:00:06.131Z,6.03
2018-02-24T12:01:09.415Z,5.30
2018-02-24T12:02:12.695Z,5.43
2018-02-24T12:03:16.055Z,5.97
2018-02-24T12:04:18.596Z,6.18
2018-02-24T12:05:21.112Z,5.87
2018-02-24T12:06:24.373Z,5.87
2018-02-24T12:07:26.914Z,6.10
2018-02-24T12:08:29.438Z,5.60
2018-02-24T12:09:31.951Z,5.40
2018-02-24T12:10:34.453Z,5.40
2018-02-24T12:11:37.774Z,5.40
2018-02-24T12:12:40.290Z,6.18
2018-02-24T12:13:42.891Z,5.97
2018-02-24T12:14:45.411Z,5.90
2018-02-24T12:15:47.915Z,5.30
2018-02-24T12:16:50.420Z,5.45
2018-02-24T12:17:52.935Z,5.57
2018-02-24T12:18:56.225Z,5.20
2018-02-24T12:19:59.487Z,5.80
2018-02-24T12:21:02.004Z,5.45
2018-02-24T12:22:04.557Z,5.37
2018-02-24T12:23:07.056Z,6.03
2018-02-24T12:24:09.575Z,5.10
2018-02-24T12:25:12.097Z,5.68
2018-02-24T12:26:14.657Z,6.18
2018-02-24T12:27:17.146Z,5.68
2018-02-24T12:28:19.648Z,5.15
2018-02-24T12:29:22.215Z,5.55
2018-02-24T12:30:24.746Z,5.57
2018-02-24T12:31:28.852Z,4.40
2018-02-24T12:32:31.351Z,4.90
2018-02-24T12:33:33.866Z,5.45
2018-02-24T12:34:36.438Z,5.22
2018-02-24T12:35:38.943Z,5.53
2018-02-24T12:36:41.441Z,4.90
2018-02-24T12:37:43.963Z,5.62
2018-02-24T12:38:46.490Z,5.53
2018-02-24T12:39:49.022Z,4.93
2018-02-24T12:40:51.550Z,4.78
2018-02-24T12:41:54.814Z,4.70
2018-02-24T12:42:57.316Z,4.65
2018-02-24T12:43:59.824Z,3.95
2018-02-24T12:45:02.377Z,4.95
2018-02-24T12:46:04.910Z,4.53
2018-02-24T12:47:07.423Z,5.10
2018-02-24T12:48:09.939Z,4.32
2018-02-24T12:49:12.446Z,5.20
2018-02-24T12:50:15.027Z,4.75
2018-02-24T12:51:17.612Z,5.18
2018-02-24T12:52:20.879Z,4.68
2018-02-24T12:53:23.404Z,4.70
2018-02-24T12:54:25.909Z,4.55
2018-02-24T12:55:28.486Z,4.43
2018-02-24T12:56:30.979Z,4.20
2018-02-24T12:57:34.262Z,4.72
2018-02-24T12:58:37.526Z,4.15
2018-02-24T12:59:40.798Z,5.12
2018-02-24T13:00:43.343Z,5.22
2018-02-24T13:01:45.839Z,5.90
2018-02-24T13:02:49.114Z,5.20
2018-02-24T13:03:51.609Z,5.80
2018-02-24T13:04:54.863Z,5.25
2018-02-24T13:05:57.402Z,5.37
2018-02-24T13:06:59.896Z,5.28
2018-02-24T13:08:03.185Z,5.93
2018-02-24T13:09:05.703Z,10.95
2018-02-24T13:10:08.212Z,6.93
2018-02-24T13:11:10.778Z,14.48
2018-02-24T13:12:13.310Z,16.37
2018-02-24T13:13:15.811Z,16.33
2018-02-24T13:14:18.341Z,12.20
2018-02-24T13:15:20.897Z,13.20
2018-02-24T13:16:23.422Z,6.80
2018-02-24T13:17:25.940Z,4.75
2018-02-24T13:18:28.451Z,5.30
2018-02-24T13:19:31.714Z,5.55
2018-02-24T13:20:34.214Z,5.70
2018-02-24T13:21:36.727Z,5.37
2018-02-24T13:22:39.231Z,5.62
2018-02-24T13:23:42.502Z,5.50
2018-02-24T13:24:45.115Z,5.05
2018-02-24T13:25:47.614Z,4.80
2018-02-24T13:26:50.127Z,5.60
2018-02-24T13:27:52.622Z,5.20
2018-02-24T13:28:56.253Z,4.97
2018-02-24T13:29:58.795Z,4.90
2018-02-24T13:31:01.320Z,4.72
2018-02-24T13:32:03.855Z,5.47
2018-02-24T13:33:06.363Z,5.00
2018-02-24T13:34:08.976Z,5.30
2018-02-24T13:35:11.506Z,5.80
2018-02-24T13:36:14.022Z,5.10
2018-02-24T13:37:16.572Z,5.03
2018-02-24T13:38:19.963Z,6.07
2018-02-24T13:39:22.471Z,6.05
2018-02-24T13:40:24.984Z,5.40
2018-02-24T13:41:27.532Z,5.12